Zuni Pueblo, New Mexico
Current Conditions -  °F | °C
As of 12:53 PM on Monday 26 Jan 2015 (Local Time) from KGUP Reporting Station
Clear Clear  
Wind Chill: 54°   Ceiling: Unl
Heat Index: 54°   Visibility: 10mi
Dew Point: 26°   Wind: 3mph
Humidity: 34%   Direction: NA
Pressure: 30.33"   Gusts: NA
Location:  35.0898°N, 108.763°W
Report Text: KGUP 261953Z AUTO VRB03KT 10SM CLR 12/M03 A3033 RMK AO2 SLP243 T01221033
Loading
Personal Weather Stations






























Interactive Weather Map New forecast layout! Learn more

10-Day Weather Forecast

Advertisements
Track Severe Weather on mobile